Record high temperature 32.9°C Record low temperature -8.5°C Record high gust 255.3 mph Record high average 172.4 mph Record daily rain 43.6 mm Record low windchill -14.8°C Record high barometer 1052.1 hPa Record low barometer 963.2 hPa
Daily high pressure 1025.7 hPa Daily low pressure 1021.4 hPa Daily low windchill 2.6°C Daily high heat index 10.4°C Daily high gust speed 23.0 mph WSW Daily high average speed 16.4 mph S
Seaford Weather Data
LAST READING AT TIME: 17:00 DATE: 18 February 2020, time of next update: 17:30
Current WeatherDusk/Stopped raining/mostly cloudy - Current Temperature 8.4°C (47.1°F), Apparent temp 4.8°C, Apparent temp solar 6.3°C
Maximum Temperature (since midnight)10.4°C at: 1:12 PM Minimum Temperature (since midnight)6.4°C at: 2:43 AM
Average windspeed (ten minute)9.7 mph Wind Direction (ten minute)SW (230°)
Windchill Temperature 5.6°C Maximum Gust (last hour)23.0 mph at: 16:46
Maximum Gust (since midnight)23.0 mph at: 10:03 Maximum 1 minute average (since midnight)16.4 mph at: 01:33
Rainfall (last hour)0.6 mm Rainfall (since midnight)0.6 mm (0.02 in.) at 16:03
Rainfall This month 99.8 mm (3.93 in.) Rainfall To date this year 184.2 mm (7.25 in.)
Maximum rain per minute (last hour)0.2 mm/min Maximum rain per hour (last 6 hours)0.6 mm/hour
Yesterdays rainfall 6.4 mm DewPoint 6.5°C (Wet Bulb :7.5°C )
Humidity 88 %, Humidex 8.2°C Barometer corrected to msl1021.5 hPa
Pressure change -0.6 hPa (last hour) Trend (last hour)STEADY
Pressure change (last 12 hours)-2.8 hPa Pressure change (last 6 hours)-4.0 hPa
Current 04:44 hours of sunshine today, current sky: Dusk/Stopped raining/mostly cloudy -
Sunshine hours for the year: 102:52 hrs Sunshine hours for the month: 49:54 hrs
Current evapotranspiration rate 1.7 mm per day. Yesterday's reading 0.8


Click here to listen to the current weather conditions


Weather report/warning/Metars

Shoreham Airport, United Kingdom (EGKA) 50-50N 000-17W 0M
Feb 18, 2020 - 11:20 AM EST / 2020.02.18 1620 UTC
Wind: from the SW (220 degrees) at 20 MPH (17 KT) gusting to 31 MPH (27 KT):0
Visibility: 4 mile(s):0
Sky conditions: mostly cloudy
Weather: showers in the vicinity
Temperature: 48 F (9 C)
Dew Point: 44 F (7 C)
Relative Humidity: 87%
Pressure (altimeter): 30.06 in. Hg (1018 hPa)
ob: EGKA 181620Z 22017G27KT 8000 VCSH FEW015 BKN040 09/07 Q1018
cycle: 16
Yeovilton, United Kingdom (EGDY) 51-00N 002-38W 0M
Feb 18, 2020 - 11:29 AM EST / 2020.02.18 1629 UTC
Wind: from the WSW (240 degrees) at 18 MPH (16 KT):0
Visibility: greater than 7 mile(s):0
Sky conditions: mostly cloudy
Weather: light rain showers
Temperature: 48 F (9 C)
Dew Point: 41 F (5 C)
Relative Humidity: 75%
Pressure (altimeter): 30.03 in. Hg (1017 hPa)
ob: EGDY 181629Z 24016KT 9999 -SHRA SCT020 BKN030 09/05 Q1017 / TEMPO 4000 +SHRA SCT010 RMK WHT TEMPO GRN
cycle: 16
Luton Airport , United Kingdom (EGGW) 51-52N 000-22W
Feb 18, 2020 - 11:20 AM EST / 2020.02.18 1620 UTC
Wind: from the SW (220 degrees) at 17 MPH (15 KT):0
Visibility: greater than 7 mile(s):0
Sky conditions: mostly cloudy
Temperature: 44 F (7 C)
Dew Point: 39 F (4 C)
Relative Humidity: 81%
Pressure (altimeter): 29.94 in. Hg (1014 hPa)
ob: EGGW 181620Z AUTO 22015KT 9999 SCT025 BKN034 07/04 Q1014
cycle: 16
Bournemouth Airport, United Kingdom (EGHH) 50-47N 001-50W 0M
Feb 18, 2020 - 11:20 AM EST / 2020.02.18 1620 UTC
Wind: from the WSW (250 degrees) at 20 MPH (17 KT):0
Visibility: greater than 7 mile(s):0
Sky conditions: mostly cloudy
Weather: light rain showers
Temperature: 48 F (9 C)
Dew Point: 44 F (7 C)
Relative Humidity: 87%
Pressure (altimeter): 30.06 in. Hg (1018 hPa)
ob: EGHH 181620Z 25017KT 9999 6000S -SHRA SCT019 BKN044 09/07 Q1018 RERA
cycle: 16
Guernsey Airport, United Kingdom (EGJB) 49-26N 002-36W 0M
Feb 18, 2020 - 11:20 AM EST / 2020.02.18 1620 UTC
Wind: from the WSW (240 degrees) at 25 MPH (22 KT) gusting to 38 MPH (33 KT):0
Visibility: greater than 7 mile(s):0
Sky conditions: mostly clear
Weather: showers in the vicinity; Cumulonimbus clouds observed
Temperature: 50 F (10 C)
Dew Point: 42 F (6 C)
Relative Humidity: 76%
Pressure (altimeter): 30.18 in. Hg (1022 hPa)
ob: EGJB 181620Z 24022G33KT 9999 VCSH FEW015CB FEW019 10/06 Q1022
cycle: 16
Jersey Airport, United Kingdom (EGJJ) 49-13N 002-12W 0M
Feb 18, 2020 - 11:20 AM EST / 2020.02.18 1620 UTC
Wind: from the WSW (240 degrees) at 23 MPH (20 KT):0
Visibility: greater than 7 mile(s):0
Sky conditions: mostly clear
Temperature: 48 F (9 C)
Dew Point: 42 F (6 C)
Relative Humidity: 81%
Pressure (altimeter): 30.21 in. Hg (1023 hPa)
ob: EGJJ 181620Z 24020KT 9999 FEW022 09/06 Q1023
cycle: 16
London / Gatwick Airport, United Kingdom (EGKK) 51-09N 000-11W 0M
Feb 18, 2020 - 11:20 AM EST / 2020.02.18 1620 UTC
Wind: from the SW (230 degrees) at 14 MPH (12 KT):0
Visibility: greater than 7 mile(s):0
Sky conditions: partly cloudy
Temperature: 46 F (8 C)
Dew Point: 42 F (6 C)
Relative Humidity: 87%
Pressure (altimeter): 30.03 in. Hg (1017 hPa)
ob: EGKK 181620Z 23012KT 9999 FEW010 SCT021 08/06 Q1017
cycle: 16
London / Heathrow Airport, United Kingdom (EGLL) 51-29N 000-27W 0M
Feb 18, 2020 - 11:20 AM EST / 2020.02.18 1620 UTC
Wind: from the SSW (210 degrees) at 14 MPH (12 KT):0
Visibility: greater than 7 mile(s):0
Temperature: 46 F (8 C)
Dew Point: 41 F (5 C)
Relative Humidity: 81%
Pressure (altimeter): 30.00 in. Hg (1016 hPa)
ob: EGLL 181620Z AUTO 21012KT 9999 NCD 08/05 Q1016
cycle: 16
Southend-On-Sea , United Kingdom (EGMC) 51-34N 000-42E
Feb 18, 2020 - 11:20 AM EST / 2020.02.18 1620 UTC
Wind: from the WSW (240 degrees) at 13 MPH (11 KT):0
Visibility: greater than 7 mile(s):0
Sky conditions: partly cloudy
Temperature: 44 F (7 C)
Dew Point: 39 F (4 C)
Relative Humidity: 81%
Pressure (altimeter): 30.00 in. Hg (1016 hPa)
ob: EGMC 181620Z 24011KT 9999 FEW014 SCT022 07/04 Q1016
cycle: 16
Lydd Airport , United Kingdom (EGMD) 50-57N 000-56E
Feb 18, 2020 - 11:20 AM EST / 2020.02.18 1620 UTC
Wind: from the SW (230 degrees) at 26 MPH (23 KT):0
Visibility: greater than 7 mile(s):0
Sky conditions: mostly cloudy
Weather: showers in the vicinity
Temperature: 48 F (9 C)
Dew Point: 44 F (7 C)
Relative Humidity: 87%
Pressure (altimeter): 30.09 in. Hg (1019 hPa)
ob: EGMD 181620Z 23023KT 9999 VCSH SCT021 BKN033 09/07 Q1019
cycle: 16
Glasgow Airport, United Kingdom (EGPF) 55-52N 004-26W 0M
Feb 18, 2020 - 11:20 AM EST / 2020.02.18 1620 UTC
Wind: from the WSW (240 degrees) at 13 MPH (11 KT) (direction variable):0
Visibility: greater than 7 mile(s):0
Sky conditions: mostly clear
Weather: Towering cumulus clouds observed
Temperature: 37 F (3 C)
Dew Point: 33 F (1 C)
Relative Humidity: 86%
Pressure (altimeter): 29.62 in. Hg (1003 hPa)
ob: EGPF 181620Z AUTO 24011KT 210V270 9999 FEW017/// //////TCU 03/01 Q1003
cycle: 16
Stansted Airport, United Kingdom (EGSS) 51-53N 000-14E 0M
Feb 18, 2020 - 11:20 AM EST / 2020.02.18 1620 UTC
Wind: from the SW (230 degrees) at 20 MPH (17 KT):0
Visibility: greater than 7 mile(s):0
Temperature: 46 F (8 C)
Dew Point: 39 F (4 C)
Relative Humidity: 75%
Pressure (altimeter): 29.97 in. Hg (1015 hPa)
ob: EGSS 181620Z AUTO 23017KT 9999 NCD 08/04 Q1015
cycle: 16
Brize Norton, United Kingdom (EGVN) 51-45N 001-35W 0M
Feb 18, 2020 - 11:22 AM EST / 2020.02.18 1622 UTC
Wind: from the SW (230 degrees) at 10 MPH (9 KT):0
Visibility: greater than 7 mile(s):0
Sky conditions: mostly cloudy
Weather: showers in the vicinity
Temperature: 46 F (8 C)
Dew Point: 41 F (5 C)
Relative Humidity: 81%
Pressure (altimeter): 29.94 in. Hg (1014 hPa)
ob: EGVN 181622Z 23009KT 9999 VCSH FEW020 SCT028 BKN100 08/05 Q1014 TEMPO 6000 SHRA SCT022 RMK BLU TEMPO WHT
cycle: 16



The data is logged at two minute intervals, but there is data recorded every minute. On the graph, the Blue line represents the average windspeed, the Red line is the maximum gust for that interval, and the Green line is what the wind has dropped off to in the same interval. Fuschia is the Barometer, and the dew point and Blue is humidity.

Use the RELOAD facility on your browser to retrieve the latest data.

Click here for a daily update of the averages/extremes to date for the month

Check *Live* Weather

Created by "Weather Display" software version 10.37S at this start time/date 14:28:25 23/01/2020